Time;durP1;ratioP1;P1;durP2;ratioP2;P2;SDS_P1;SDS_P2;PMS_P1;PMS_P2;Temp;Humidity;BMP_temperature;BMP_pressure;BME280_temperature;BME280_humidity;BME280_pressure;Samples;Min_cycle;Max_cycle;Signal;HPM_P1;HPM_P2
2023/06/15 00:02:23;;;;;;;6.15;1.83;;;18.70;91.10;;;;;;5064939;28;20112;-77
2023/06/15 00:04:50;;;;;;;4.68;1.77;;;18.40;91.00;;;;;;5080414;28;20064;-77
2023/06/15 00:07:15;;;;;;;6.25;1.85;;;18.60;91.10;;;;;;5070076;28;20491;-77
2023/06/15 00:09:41;;;;;;;3.72;1.52;;;19.20;91.30;;;;;;5076189;28;20073;-77
2023/06/15 00:12:09;;;;;;;2.25;1.48;;;18.50;91.10;;;;;;5079207;28;20048;-77
2023/06/15 00:14:36;;;;;;;3.53;1.73;;;18.50;91.20;;;;;;5076184;28;20075;-77
2023/06/15 00:17:01;;;;;;;5.82;2.08;;;18.40;91.20;;;;;;5084286;28;20039;-77
2023/06/15 00:19:28;;;;;;;7.13;1.80;;;18.40;91.30;;;;;;5058461;28;20052;-79
2023/06/15 00:21:54;;;;;;;4.30;1.70;;;18.40;91.60;;;;;;5067040;28;20102;-77
2023/06/15 00:24:20;;;;;;;5.72;2.15;;;18.70;91.40;;;;;;5074850;28;20491;-77
2023/06/15 00:26:46;;;;;;;5.78;2.10;;;18.50;91.40;;;;;;5084785;28;20086;-78
2023/06/15 00:29:11;;;;;;;3.63;1.75;;;18.30;91.40;;;;;;5071662;28;20044;-77
2023/06/15 00:31:37;;;;;;;6.30;1.63;;;18.30;91.40;;;;;;5080890;28;20267;-78
2023/06/15 00:34:03;;;;;;;6.68;1.58;;;18.20;91.40;;;;;;5063282;28;20040;-77
2023/06/15 00:36:28;;;;;;;4.40;1.95;;;18.20;91.40;;;;;;5074786;28;20036;-77
2023/06/15 00:38:54;;;;;;;3.83;2.20;;;18.20;91.50;;;;;;5080429;28;20036;-79
2023/06/15 00:41:21;;;;;;;5.13;1.80;;;18.10;91.50;;;;;;5075881;28;20507;-77
2023/06/15 00:43:46;;;;;;;2.85;1.90;;;18.10;91.60;;;;;;5078267;28;20110;-77
2023/06/15 00:46:13;;;;;;;4.45;1.70;;;18.10;91.60;;;;;;5060473;28;20127;-78
2023/06/15 00:48:39;;;;;;;3.90;1.80;;;18.10;91.60;;;;;;5078959;28;20491;-77
2023/06/15 00:51:06;;;;;;;7.70;1.90;;;18.10;91.60;;;;;;5081067;28;20028;-79
2023/06/15 00:53:32;;;;;;;3.08;2.08;;;18.00;91.60;;;;;;5080121;28;20370;-77
2023/06/15 00:55:59;;;;;;;3.40;1.73;;;18.00;91.70;;;;;;5080577;28;20040;-77
2023/06/15 00:58:25;;;;;;;2.97;1.95;;;18.00;92.10;;;;;;5077412;28;20072;-78
2023/06/15 01:00:54;;;;;;;6.18;2.10;;;18.50;91.90;;;;;;5060911;28;20074;-78
2023/06/15 01:03:20;;;;;;;4.95;1.75;;;18.10;91.80;;;;;;5070733;28;20125;-78
2023/06/15 01:05:57;;;;;;;5.43;2.13;;;17.30;91.70;;;;;;5066914;28;20039;-80
2023/06/15 01:08:25;;;;;;;8.07;1.70;;;18.00;92.00;;;;;;5065045;28;20749;-78
2023/06/15 01:10:53;;;;;;;6.07;2.25;;;18.90;92.30;;;;;;5062787;28;20039;-78
2023/06/15 01:13:20;;;;;;;5.97;2.05;;;17.90;92.00;;;;;;5076687;28;20098;-78
2023/06/15 01:15:49;;;;;;;4.25;1.92;;;17.90;92.10;;;;;;5071341;28;20036;-78
2023/06/15 01:18:20;;;;;;;3.92;2.15;;;17.80;92.10;;;;;;5075882;28;20080;-78
2023/06/15 01:20:48;;;;;;;4.05;2.17;;;17.90;92.30;;;;;;5081783;28;20043;-79
2023/06/15 01:23:28;;;;;;;5.10;2.22;;;17.80;92.20;;;;;;5080604;28;20040;-79
2023/06/15 01:26:24;;;;;;;3.33;1.98;;;17.80;92.30;;;;;;5053324;28;20058;-76
2023/06/15 01:28:52;;;;;;;4.07;1.92;;;18.60;92.50;;;;;;5051580;28;20052;-79
2023/06/15 01:31:18;;;;;;;3.60;1.95;;;17.70;92.40;;;;;;5071833;28;20106;-79
2023/06/15 01:33:48;;;;;;;2.95;2.15;;;17.80;92.50;;;;;;5073978;28;20456;-78
2023/06/15 01:36:14;;;;;;;5.88;2.10;;;17.70;92.50;;;;;;5056661;28;20120;-76
2023/06/15 01:38:41;;;;;;;3.63;2.50;;;18.20;92.70;;;;;;5064948;28;20045;-76
2023/06/15 01:41:08;;;;;;;4.95;1.83;;;17.60;92.60;;;;;;5077902;28;20074;-78
2023/06/15 01:43:35;;;;;;;3.97;2.08;;;17.60;92.70;;;;;;5053922;28;20115;-78
2023/06/15 01:46:03;;;;;;;2.95;1.98;;;17.70;92.90;;;;;;5075083;28;20396;-78
2023/06/15 01:48:28;;;;;;;5.30;2.30;;;17.40;92.90;;;;;;5059206;28;20118;-79
2023/06/15 01:50:55;;;;;;;5.15;2.03;;;17.30;93.10;;;;;;5058317;28;20487;-78
2023/06/15 01:53:22;;;;;;;1.70;1.60;;;17.20;93.10;;;;;;5062236;28;20410;-78
2023/06/15 01:55:47;;;;;;;7.30;2.00;;;17.20;93.20;;;;;;5078589;28;20044;-79
2023/06/15 01:58:15;;;;;;;6.13;2.03;;;17.10;93.30;;;;;;5050909;28;20043;-78
2023/06/15 02:00:44;;;;;;;5.70;2.22;;;17.00;93.50;;;;;;5063647;28;20053;-78
2023/06/15 02:03:11;;;;;;;3.78;2.53;;;16.90;93.60;;;;;;5072064;28;20071;-77
2023/06/15 02:05:39;;;;;;;5.35;2.08;;;16.90;93.70;;;;;;5076436;28;20041;-78
2023/06/15 02:08:06;;;;;;;6.18;2.10;;;16.90;93.80;;;;;;5081366;28;20036;-78
2023/06/15 02:10:32;;;;;;;3.42;2.03;;;16.80;93.80;;;;;;5079569;28;20553;-79
2023/06/15 02:12:57;;;;;;;2.78;2.28;;;16.80;93.90;;;;;;5064578;28;20040;-79
2023/06/15 02:15:23;;;;;;;3.60;2.17;;;16.80;94.20;;;;;;5074307;28;20084;-78
2023/06/15 02:17:59;;;;;;;4.75;2.20;;;16.80;94.00;;;;;;5081066;28;20507;-78
2023/06/15 02:20:25;;;;;;;7.10;2.83;;;17.00;94.10;;;;;;5077960;28;20046;-79
2023/06/15 02:22:52;;;;;;;4.35;2.30;;;16.70;94.10;;;;;;5072905;28;20560;-79
2023/06/15 02:25:19;;;;;;;4.38;2.45;;;16.70;94.20;;;;;;5080290;28;20048;-78
2023/06/15 02:27:45;;;;;;;2.47;2.15;;;16.70;94.20;;;;;;5065711;28;20535;-78
2023/06/15 02:30:12;;;;;;;6.68;2.47;;;16.60;94.20;;;;;;5083803;28;20044;-78
2023/06/15 02:32:39;;;;;;;6.40;2.50;;;16.60;94.30;;;;;;5074544;28;20097;-78
2023/06/15 02:35:08;;;;;;;4.30;1.98;;;16.60;94.40;;;;;;5081189;28;20044;-78
2023/06/15 02:37:34;;;;;;;5.07;2.70;;;16.60;94.40;;;;;;5082218;28;20446;-79
2023/06/15 02:39:59;;;;;;;4.60;2.33;;;16.80;94.50;;;;;;5066270;28;20128;-79
2023/06/15 02:42:25;;;;;;;3.97;2.38;;;16.50;94.50;;;;;;5070980;28;20033;-80
2023/06/15 02:44:51;;;;;;;6.13;2.65;;;16.50;94.60;;;;;;5079562;28;20036;-79
2023/06/15 02:47:17;;;;;;;3.50;2.78;;;16.50;94.60;;;;;;5076983;28;20115;-79
2023/06/15 02:49:42;;;;;;;6.68;2.55;;;16.50;94.70;;;;;;5077807;28;20047;-78
2023/06/15 02:52:08;;;;;;;7.82;2.25;;;16.50;94.60;;;;;;5075056;28;20040;-79
2023/06/15 02:54:36;;;;;;;3.63;2.50;;;16.60;94.70;;;;;;5068195;28;20044;-79
2023/06/15 02:57:06;;;;;;;4.47;2.65;;;16.50;94.70;;;;;;5075477;28;20086;-80
2023/06/15 02:59:33;;;;;;;3.63;2.42;;;16.50;94.80;;;;;;5069435;28;20053;-79
2023/06/15 03:02:00;;;;;;;2.72;2.47;;;16.90;94.90;;;;;;5070665;28;20808;-80
2023/06/15 03:04:27;;;;;;;3.88;2.72;;;16.90;95.00;;;;;;5056613;28;20032;-79
2023/06/15 03:06:56;;;;;;;5.03;2.60;;;16.50;95.00;;;;;;5078105;28;20052;-80
2023/06/15 03:09:22;;;;;;;5.03;3.10;;;16.50;94.90;;;;;;5076530;28;20036;-79
2023/06/15 03:11:48;;;;;;;2.88;2.17;;;16.90;95.00;;;;;;5079027;28;20139;-78
2023/06/15 03:14:14;;;;;;;5.93;2.88;;;17.00;95.20;;;;;;5073201;28;20135;-79
2023/06/15 03:16:41;;;;;;;4.05;2.78;;;16.50;95.20;;;;;;5075429;28;20150;-78
2023/06/15 03:19:07;;;;;;;5.80;2.50;;;16.40;95.40;;;;;;5049878;28;20047;-80
2023/06/15 03:21:32;;;;;;;4.93;2.75;;;16.40;95.50;;;;;;5073870;28;20476;-78
2023/06/15 03:23:58;;;;;;;6.95;3.13;;;16.90;95.70;;;;;;5081746;28;20044;-81
2023/06/15 03:26:26;;;;;;;4.38;2.60;;;16.40;95.70;;;;;;5077483;28;20430;-78
2023/06/15 03:28:53;;;;;;;5.43;3.00;;;17.30;96.00;;;;;;5074282;28;20048;-81
2023/06/15 03:31:19;;;;;;;8.00;2.65;;;16.30;95.80;;;;;;5062414;28;20040;-80
2023/06/15 03:33:45;;;;;;;4.15;2.85;;;16.20;95.80;;;;;;5064856;28;20043;-79
2023/06/15 03:36:14;;;;;;;3.85;2.75;;;16.30;95.80;;;;;;5080828;28;20062;-79
2023/06/15 03:38:43;;;;;;;7.07;2.55;;;16.40;95.90;;;;;;5059412;28;20094;-78
2023/06/15 03:41:08;;;;;;;3.83;2.65;;;16.40;95.90;;;;;;5070292;28;20040;-80
2023/06/15 03:43:37;;;;;;;5.90;3.05;;;16.30;96.10;;;;;;5071237;28;20091;-80
2023/06/15 03:46:06;;;;;;;5.43;2.97;;;16.60;96.30;;;;;;5074787;28;20430;-78
2023/06/15 03:48:32;;;;;;;6.75;3.05;;;16.20;96.40;;;;;;5068198;28;20116;-79
2023/06/15 03:50:58;;;;;;;4.57;3.35;;;16.20;96.50;;;;;;5076590;28;20122;-79
2023/06/15 03:53:26;;;;;;;3.60;2.60;;;16.60;96.60;;;;;;5061181;28;20085;-79
2023/06/15 03:55:52;;;;;;;7.22;3.03;;;16.10;96.50;;;;;;5063904;28;20097;-80
2023/06/15 03:58:17;;;;;;;7.55;3.35;;;16.30;96.70;;;;;;5054167;28;20049;-81
2023/06/15 04:00:45;;;;;;;5.53;2.80;;;17.40;97.20;;;;;;5071179;28;20056;-77
2023/06/15 04:03:12;;;;;;;4.95;3.08;;;16.10;96.70;;;;;;5035145;28;20506;-79
2023/06/15 04:05:38;;;;;;;8.05;2.95;;;16.10;96.80;;;;;;5071414;28;20395;-78
2023/06/15 04:08:04;;;;;;;5.07;2.90;;;16.10;96.90;;;;;;5074479;28;20032;-78
2023/06/15 04:10:31;;;;;;;3.90;2.90;;;16.00;97.00;;;;;;5081888;28;20047;-79
2023/06/15 04:12:57;;;;;;;7.93;2.85;;;16.10;97.10;;;;;;5073905;28;20439;-80
2023/06/15 04:15:22;;;;;;;5.30;2.75;;;16.50;97.20;;;;;;5053584;28;20048;-77
2023/06/15 04:17:48;;;;;;;7.50;3.00;;;16.10;97.10;;;;;;5055526;28;20493;-80
2023/06/15 04:20:14;;;;;;;4.80;2.78;;;16.10;97.00;;;;;;5072307;28;20043;-78
2023/06/15 04:22:40;;;;;;;3.03;2.70;;;16.20;97.00;;;;;;5054698;28;20052;-79
2023/06/15 04:25:06;;;;;;;6.68;2.63;;;16.30;97.00;;;;;;5037987;28;20403;-77
2023/06/15 04:27:34;;;;;;;3.05;2.83;;;16.20;97.00;;;;;;5069829;28;20094;-78
2023/06/15 04:30:00;;;;;;;5.15;2.80;;;16.30;97.00;;;;;;5074268;28;20048;-78
2023/06/15 04:32:29;;;;;;;4.43;2.83;;;16.30;97.00;;;;;;5075098;28;20035;-78
2023/06/15 04:34:56;;;;;;;3.53;2.58;;;16.30;97.10;;;;;;5055189;28;20127;-78
2023/06/15 04:37:23;;;;;;;4.40;2.90;;;16.30;97.10;;;;;;5072825;28;20083;-79
2023/06/15 04:39:50;;;;;;;5.78;2.67;;;16.40;97.10;;;;;;5062207;28;20491;-77
2023/06/15 04:42:18;;;;;;;6.43;2.70;;;17.80;97.40;;;;;;5076539;28;20036;-77
2023/06/15 04:44:44;;;;;;;6.80;3.38;;;16.40;97.10;;;;;;5077899;28;20048;-77
2023/06/15 04:47:10;;;;;;;4.07;2.95;;;16.40;97.10;;;;;;5069138;28;20502;-79
2023/06/15 04:49:35;;;;;;;5.93;2.80;;;16.40;97.20;;;;;;5076136;28;20048;-80
2023/06/15 04:52:01;;;;;;;6.07;3.58;;;16.40;97.30;;;;;;5079393;28;20039;-78
2023/06/15 04:54:27;;;;;;;6.75;2.85;;;16.30;97.40;;;;;;5068438;28;20046;-77
2023/06/15 04:56:52;;;;;;;5.00;3.15;;;16.40;97.50;;;;;;5077693;28;20098;-76
2023/06/15 04:59:18;;;;;;;5.45;2.95;;;16.40;97.70;;;;;;5079568;28;20403;-80
2023/06/15 05:01:44;;;;;;;3.78;2.95;;;16.40;97.80;;;;;;5059946;28;20441;-79
2023/06/15 05:04:10;;;;;;;4.15;2.60;;;16.40;97.90;;;;;;5085217;28;20551;-78
2023/06/15 05:06:35;;;;;;;5.18;3.13;;;16.40;97.90;;;;;;5075067;28;20047;-78
2023/06/15 05:09:01;;;;;;;7.03;2.83;;;16.80;98.00;;;;;;5081743;28;20045;-79
2023/06/15 05:11:27;;;;;;;6.68;2.83;;;16.50;97.90;;;;;;5072350;28;20068;-78
2023/06/15 05:13:54;;;;;;;7.10;2.72;;;16.60;97.80;;;;;;5082396;28;20072;-79
2023/06/15 05:16:19;;;;;;;6.63;2.80;;;16.60;97.60;;;;;;5083019;28;20040;-77
2023/06/15 05:18:46;;;;;;;9.32;6.45;;;16.70;97.50;;;;;;5074008;28;20115;-80
2023/06/15 05:21:12;;;;;;;12.02;5.40;;;17.60;97.70;;;;;;5081031;28;20087;-78
2023/06/15 05:23:37;;;;;;;6.38;4.88;;;16.70;97.40;;;;;;5079239;28;20076;-78
2023/06/15 05:26:03;;;;;;;5.53;3.10;;;16.70;97.40;;;;;;5082633;28;20051;-77
2023/06/15 05:28:30;;;;;;;7.78;3.42;;;16.80;97.40;;;;;;5082982;28;20049;-78
2023/06/15 05:30:55;;;;;;;6.47;3.05;;;17.90;97.70;;;;;;5080595;28;20032;-79
2023/06/15 05:33:21;;;;;;;4.28;2.75;;;17.60;97.50;;;;;;5079446;28;20492;-79
2023/06/15 05:35:47;;;;;;;6.13;2.72;;;17.00;97.30;;;;;;5067750;28;20052;-82
2023/06/15 05:38:12;;;;;;;13.60;2.80;;;17.30;97.30;;;;;;5080423;28;20044;-79
2023/06/15 05:40:38;;;;;;;26.25;20.08;;;16.90;97.10;;;;;;5070238;28;20215;-80
2023/06/15 05:43:08;;;;;;;6.97;3.95;;;17.80;97.20;;;;;;5084172;28;20045;-82
2023/06/15 05:45:53;;;;;;;4.03;2.75;;;17.00;96.90;;;;;;5094247;22;20039;-81
2023/06/15 05:48:19;;;;;;;7.60;2.53;;;17.40;96.90;;;;;;5083672;28;20055;-81
2023/06/15 05:50:46;;;;;;;8.02;2.40;;;17.90;96.90;;;;;;5078668;28;20416;-81
2023/06/15 05:53:12;;;;;;;5.70;2.17;;;17.00;96.40;;;;;;5072404;28;20029;-80
2023/06/15 05:55:37;;;;;;;5.35;4.03;;;17.10;96.30;;;;;;5081214;28;20036;-81
2023/06/15 05:58:03;;;;;;;5.07;2.03;;;17.10;96.10;;;;;;5083391;28;20133;-81
2023/06/15 06:00:31;;;;;;;7.57;3.45;;;17.10;95.80;;;;;;5084116;28;20044;-82
2023/06/15 06:03:01;;;;;;;3.42;2.10;;;17.20;95.70;;;;;;5081946;28;20117;-81
2023/06/15 06:05:27;;;;;;;4.93;2.13;;;17.20;95.40;;;;;;5079346;28;20048;-83
2023/06/15 06:07:52;;;;;;;4.78;2.85;;;17.20;95.30;;;;;;5080851;28;20506;-81
2023/06/15 06:10:19;;;;;;;3.28;2.08;;;17.30;95.30;;;;;;5082793;28;20032;-82
2023/06/15 06:12:44;;;;;;;4.38;2.13;;;17.30;95.20;;;;;;5071327;28;20044;-81
2023/06/15 06:15:10;;;;;;;3.70;2.28;;;17.40;95.00;;;;;;5076051;28;20040;-81
2023/06/15 06:17:36;;;;;;;5.45;1.80;;;17.40;94.80;;;;;;5074028;28;20063;-81
2023/06/15 06:20:03;;;;;;;3.08;1.50;;;17.40;94.50;;;;;;5082551;28;20044;-81
2023/06/15 06:22:29;;;;;;;5.25;2.00;;;17.40;94.30;;;;;;5078885;28;20531;-82
2023/06/15 06:24:54;;;;;;;3.08;1.85;;;17.50;94.20;;;;;;5080720;28;20087;-82
2023/06/15 06:27:20;;;;;;;7.97;1.80;;;18.30;94.40;;;;;;5075732;28;20059;-82
2023/06/15 06:29:45;;;;;;;4.18;2.00;;;17.60;93.90;;;;;;5085267;28;20046;-82
2023/06/15 06:32:12;;;;;;;8.60;1.90;;;17.60;93.50;;;;;;5074804;28;20036;-80
2023/06/15 06:34:38;;;;;;;3.10;1.88;;;17.70;93.00;;;;;;5075908;28;20071;-79
2023/06/15 06:37:04;;;;;;;4.43;1.60;;;17.70;92.70;;;;;;5085223;28;20400;-79
2023/06/15 06:39:30;;;;;;;4.40;1.50;;;17.80;92.40;;;;;;5079434;28;20231;-81
2023/06/15 06:42:00;;;;;;;4.18;1.50;;;18.20;92.40;;;;;;5081490;28;20595;-81
2023/06/15 06:44:26;;;;;;;3.58;2.00;;;17.90;92.10;;;;;;5081885;28;20562;-82
2023/06/15 06:46:52;;;;;;;8.13;1.60;;;17.90;92.00;;;;;;5081861;28;20349;-81
2023/06/15 06:49:17;;;;;;;7.25;3.95;;;18.20;92.00;;;;;;5078219;28;20051;-80
2023/06/15 06:51:43;;;;;;;3.20;1.75;;;18.00;92.00;;;;;;5079841;28;20093;-79
2023/06/15 06:54:08;;;;;;;2.40;1.92;;;18.00;92.10;;;;;;5087282;28;20055;-81
2023/06/15 06:56:34;;;;;;;6.40;1.77;;;18.80;92.30;;;;;;5072345;28;20050;-81
2023/06/15 06:59:00;;;;;;;2.50;1.77;;;18.20;92.10;;;;;;5088601;28;20047;-79
2023/06/15 07:01:26;;;;;;;3.58;2.00;;;19.00;92.30;;;;;;5067592;28;20036;-81
2023/06/15 07:03:52;;;;;;;2.20;1.75;;;18.50;92.00;;;;;;5077855;28;20066;-81
2023/06/15 07:06:17;;;;;;;6.30;1.52;;;18.60;91.50;;;;;;5082540;28;20107;-79
2023/06/15 07:08:43;;;;;;;6.05;2.22;;;18.50;91.40;;;;;;5081227;28;20147;-81
2023/06/15 07:11:11;;;;;;;7.57;2.13;;;18.50;91.30;;;;;;5081952;28;20047;-82
2023/06/15 07:13:37;;;;;;;2.90;1.50;;;18.60;91.50;;;;;;5080227;28;20058;-80
2023/06/15 07:16:04;;;;;;;2.10;1.90;;;18.60;91.20;;;;;;5079273;28;20604;-82
2023/06/15 07:18:29;;;;;;;2.72;1.70;;;18.70;91.00;;;;;;5082457;28;20047;-79
2023/06/15 07:20:55;;;;;;;9.23;2.28;;;18.70;90.90;;;;;;5081317;28;20044;-82
2023/06/15 07:23:21;;;;;;;7.53;2.10;;;18.70;90.90;;;;;;5077512;28;20551;-82
2023/06/15 07:25:52;;;;;;;4.97;1.63;;;18.80;90.90;;;;;;5079681;28;20064;-82
2023/06/15 07:28:18;;;;;;;3.83;2.00;;;18.80;90.60;;;;;;5091819;28;20036;-83
2023/06/15 07:30:46;;;;;;;7.97;2.00;;;18.90;90.50;;;;;;5074095;28;20353;-81
2023/06/15 07:33:12;;;;;;;5.95;2.08;;;19.10;90.80;;;;;;5073080;28;20493;-80
2023/06/15 07:35:38;;;;;;;2.75;1.67;;;18.90;90.50;;;;;;5071224;28;20047;-81
2023/06/15 07:38:04;;;;;;;2.78;1.52;;;19.00;90.50;;;;;;5079989;28;20086;-82
2023/06/15 07:40:29;;;;;;;4.13;1.45;;;19.00;90.50;;;;;;5078302;28;20472;-81
2023/06/15 07:42:55;;;;;;;4.85;1.83;;;19.10;90.50;;;;;;5077200;28;20036;-80
2023/06/15 07:45:21;;;;;;;3.05;2.78;;;19.20;90.30;;;;;;5077701;28;20039;-81
2023/06/15 07:47:46;;;;;;;5.80;1.98;;;19.20;90.00;;;;;;5078174;28;20095;-81
2023/06/15 07:50:12;;;;;;;5.68;1.70;;;19.20;89.80;;;;;;5069459;28;20067;-78
2023/06/15 07:52:37;;;;;;;8.35;1.90;;;19.30;89.10;;;;;;5076567;28;20068;-82
2023/06/15 07:55:04;;;;;;;5.30;1.77;;;19.30;88.20;;;;;;5085983;28;20071;-81
2023/06/15 07:57:30;;;;;;;2.92;1.73;;;19.40;88.00;;;;;;5077262;28;20037;-81
2023/06/15 07:59:56;;;;;;;4.38;1.52;;;20.10;87.80;;;;;;5076015;28;20063;-80
2023/06/15 08:02:22;;;;;;;4.13;1.80;;;20.00;87.50;;;;;;5080825;28;20561;-82
2023/06/15 08:04:48;;;;;;;6.45;1.75;;;19.60;87.00;;;;;;5081420;28;20115;-82
2023/06/15 08:07:13;;;;;;;6.22;1.65;;;19.60;86.60;;;;;;5079424;28;20446;-80
2023/06/15 08:09:39;;;;;;;1.50;1.23;;;19.60;86.40;;;;;;5077000;28;20091;-81
2023/06/15 08:12:05;;;;;;;5.05;1.52;;;19.70;86.70;;;;;;5068202;28;20166;-81
2023/06/15 08:14:31;;;;;;;3.55;1.58;;;19.70;86.80;;;;;;5081003;28;20483;-82
2023/06/15 08:16:56;;;;;;;3.30;1.50;;;19.80;86.40;;;;;;5071744;28;20036;-82
2023/06/15 08:19:22;;;;;;;3.75;1.90;;;19.80;86.50;;;;;;5077602;28;20090;-82
2023/06/15 08:21:51;;;;;;;2.85;1.63;;;19.80;86.00;;;;;;5077890;28;20048;-82
2023/06/15 08:24:16;;;;;;;3.53;1.55;;;19.90;86.40;;;;;;5079557;28;20039;-80
2023/06/15 08:26:42;;;;;;;5.70;1.55;;;19.90;86.60;;;;;;5080199;28;20089;-84
2023/06/15 08:29:08;;;;;;;4.85;2.17;;;19.90;85.90;;;;;;5080510;28;20083;-81
2023/06/15 08:31:35;;;;;;;5.15;2.13;;;20.10;86.40;;;;;;5076938;28;20040;-82
2023/06/15 08:34:00;;;;;;;6.97;1.80;;;20.20;85.50;;;;;;5067344;28;20393;-83
2023/06/15 08:36:26;;;;;;;6.32;2.05;;;20.20;85.80;;;;;;5082910;28;20333;-83
2023/06/15 08:38:52;;;;;;;4.93;2.17;;;20.20;86.20;;;;;;5075125;28;20051;-82
2023/06/15 08:41:19;;;;;;;3.95;1.45;;;20.20;86.20;;;;;;5082126;28;20381;-82
2023/06/15 08:43:46;;;;;;;7.07;2.03;;;20.30;85.90;;;;;;5081147;28;20041;-82
2023/06/15 08:46:12;;;;;;;4.28;2.13;;;20.30;85.90;;;;;;5082479;28;20143;-83
2023/06/15 08:48:41;;;;;;;8.68;2.30;;;20.50;85.40;;;;;;5083518;28;20124;-82
2023/06/15 08:51:08;;;;;;;6.20;2.15;;;20.50;85.20;;;;;;5074565;28;20189;-83
2023/06/15 08:53:37;;;;;;;4.45;1.52;;;20.50;84.90;;;;;;5081461;28;20036;-82
2023/06/15 08:56:04;;;;;;;8.00;1.92;;;20.60;85.10;;;;;;5079783;28;20502;-83
2023/06/15 08:58:31;;;;;;;5.35;1.60;;;20.70;84.90;;;;;;5084059;28;20403;-83
2023/06/15 09:00:57;;;;;;;4.00;1.90;;;20.70;84.60;;;;;;5083824;28;20063;-83
2023/06/15 09:03:23;;;;;;;2.90;1.90;;;20.70;84.20;;;;;;5081662;28;20044;-83
2023/06/15 09:05:49;;;;;;;2.95;1.70;;;20.80;83.70;;;;;;5088362;28;20044;-82
2023/06/15 09:08:14;;;;;;;6.85;1.58;;;21.00;83.70;;;;;;5084979;28;20094;-82
2023/06/15 09:10:41;;;;;;;4.60;2.47;;;20.90;83.50;;;;;;5080151;28;20036;-81
2023/06/15 09:13:16;;;;;;;4.30;1.92;;;21.00;83.70;;;;;;5080905;28;20044;-80
2023/06/15 09:15:43;;;;;;;8.77;4.32;;;21.10;83.80;;;;;;5039844;28;20381;-82
2023/06/15 09:18:13;;;;;;;6.85;5.03;;;21.10;84.40;;;;;;5055102;28;20156;-82
2023/06/15 09:20:39;;;;;;;5.38;2.15;;;21.10;84.30;;;;;;5085530;28;20052;-79
2023/06/15 09:23:10;;;;;;;3.78;1.77;;;21.20;84.10;;;;;;5080064;28;20032;-82
2023/06/15 09:25:36;;;;;;;6.90;2.13;;;21.30;83.50;;;;;;5072539;28;20051;-80
2023/06/15 09:28:07;;;;;;;3.42;2.03;;;21.30;82.60;;;;;;5070912;28;20115;-82
2023/06/15 09:30:34;;;;;;;4.80;2.17;;;21.30;81.90;;;;;;5082213;28;20050;-81
2023/06/15 09:33:09;;;;;;;4.53;1.88;;;21.40;81.70;;;;;;5083383;28;20060;-80
2023/06/15 09:35:35;;;;;;;3.83;2.00;;;21.40;81.30;;;;;;5081585;28;20358;-80
2023/06/15 09:38:02;;;;;;;3.58;1.77;;;21.40;80.60;;;;;;5058425;28;20150;-81
2023/06/15 09:40:30;;;;;;;6.53;2.22;;;21.50;80.00;;;;;;5080989;28;20093;-81
2023/06/15 09:42:58;;;;;;;5.85;1.98;;;21.70;80.00;;;;;;5081302;28;20041;-81
2023/06/15 09:45:24;;;;;;;3.95;1.42;;;21.70;79.80;;;;;;5082763;28;20044;-79
2023/06/15 09:47:55;;;;;;;3.15;2.05;;;21.80;79.90;;;;;;5085528;28;20452;-79
2023/06/15 09:50:29;;;;;;;3.67;2.13;;;21.80;79.20;;;;;;5082885;28;20056;-82
2023/06/15 09:52:56;;;;;;;7.47;2.10;;;21.90;79.00;;;;;;5081139;28;20248;-82
2023/06/15 09:55:23;;;;;;;4.72;2.47;;;21.90;79.80;;;;;;5081551;28;20060;-80
2023/06/15 09:57:52;;;;;;;3.65;1.90;;;22.00;79.50;;;;;;5083147;28;20046;-81
2023/06/15 10:00:18;;;;;;;3.28;1.90;;;22.10;80.10;;;;;;5085600;28;20051;-81
2023/06/15 10:02:45;;;;;;;3.42;1.80;;;22.20;80.10;;;;;;5080789;28;20045;-82
2023/06/15 10:05:14;;;;;;;4.72;1.58;;;22.20;78.90;;;;;;5079031;28;20052;-81
2023/06/15 10:07:43;;;;;;;5.47;2.25;;;22.40;79.00;;;;;;5072961;28;20068;-81
2023/06/15 10:10:10;;;;;;;3.72;2.42;;;22.40;78.70;;;;;;5082781;28;20059;-83
2023/06/15 10:12:42;;;;;;;4.47;2.08;;;22.30;78.50;;;;;;5095870;28;20299;-82
2023/06/15 10:15:12;;;;;;;6.30;3.40;;;22.40;78.60;;;;;;5083042;28;20099;-82
2023/06/15 10:17:41;;;;;;;2.65;1.95;;;22.40;78.60;;;;;;5079447;28;20036;-83
2023/06/15 10:20:07;;;;;;;4.25;2.20;;;22.50;78.00;;;;;;5078232;28;20399;-81
2023/06/15 10:22:34;;;;;;;2.35;2.03;;;22.60;77.90;;;;;;5081534;28;20064;-82
2023/06/15 10:25:01;;;;;;;2.72;1.65;;;22.70;78.00;;;;;;5082675;28;20399;-83
2023/06/15 10:27:27;;;;;;;2.55;2.00;;;22.90;78.40;;;;;;5070604;28;20113;-81
2023/06/15 10:30:07;;;;;;;9.20;1.90;;;22.90;77.70;;;;;;5077318;28;20520;-81
2023/06/15 10:32:42;;;;;;;4.82;2.10;;;23.00;77.40;;;;;;5070080;28;20503;-82
2023/06/15 10:35:25;;;;;;;2.20;2.00;;;22.90;77.80;;;;;;5073145;28;20372;-81
2023/06/15 10:38:12;;;;;;;4.32;2.50;;;23.10;78.40;;;;;;5055303;28;20098;-81
2023/06/15 10:40:43;;;;;;;3.05;2.20;;;23.10;77.10;;;;;;5084878;28;20049;-81
2023/06/15 10:43:19;;;;;;;2.67;2.13;;;23.20;77.20;;;;;;5082675;28;20032;-82
2023/06/15 10:45:46;;;;;;;3.70;1.88;;;23.30;76.80;;;;;;5073901;28;20040;-80
2023/06/15 10:48:24;;;;;;;3.40;2.13;;;23.40;76.70;;;;;;5069867;28;20040;-83
2023/06/15 10:50:53;;;;;;;7.63;2.20;;;23.60;76.90;;;;;;5055520;28;20040;-82
2023/06/15 10:53:28;;;;;;;5.68;2.22;;;23.60;77.20;;;;;;5089850;28;20043;-80
2023/06/15 10:55:55;;;;;;;3.50;2.20;;;23.70;76.70;;;;;;5071657;28;20404;-83
2023/06/15 10:58:21;;;;;;;2.97;1.83;;;23.80;77.00;;;;;;5082802;28;20037;-81
2023/06/15 11:01:07;;;;;;;5.28;2.33;;;23.90;76.00;;;;;;5071378;28;20055;-82
2023/06/15 11:03:34;;;;;;;2.47;2.00;;;23.80;76.00;;;;;;5093650;28;20059;-82
2023/06/15 11:06:08;;;;;;;5.32;2.10;;;23.90;76.10;;;;;;5072633;28;20133;-83
2023/06/15 11:08:59;;;;;;;3.78;1.80;;;24.00;76.10;;;;;;5079020;28;20086;-82
2023/06/15 11:11:33;;;;;;;3.50;2.20;;;24.20;75.50;;;;;;5071877;28;20114;-82
2023/06/15 11:14:18;;;;;;;6.93;1.83;;;24.30;74.60;;;;;;5077826;28;20046;-82
2023/06/15 11:16:44;;;;;;;7.18;2.58;;;24.30;74.50;;;;;;5068705;28;20343;-82
2023/06/15 11:19:12;;;;;;;2.10;1.90;;;24.40;74.50;;;;;;5078216;28;20043;-82
2023/06/15 11:22:04;;;;;;;4.05;1.90;;;24.50;74.90;;;;;;5079346;28;20049;-83
2023/06/15 11:24:37;;;;;;;4.60;2.10;;;24.60;73.20;;;;;;5062085;28;20131;-83
2023/06/15 11:27:05;;;;;;;3.87;1.60;;;24.80;72.00;;;;;;5081410;28;20518;-83
2023/06/15 11:29:32;;;;;;;6.68;2.22;;;24.80;70.30;;;;;;5070791;28;20036;-83
2023/06/15 11:32:04;;;;;;;2.08;1.90;;;25.00;70.90;;;;;;5077712;28;20539;-82
2023/06/15 11:34:33;;;;;;;1.92;1.83;;;25.10;71.30;;;;;;5078979;28;20087;-81
2023/06/15 11:37:00;;;;;;;3.17;1.73;;;25.20;71.60;;;;;;5082117;28;20071;-81
2023/06/15 11:39:28;;;;;;;6.80;1.90;;;25.30;71.00;;;;;;5085091;28;20364;-83
2023/06/15 11:41:55;;;;;;;7.78;1.88;;;25.40;70.20;;;;;;5082207;28;20395;-82
2023/06/15 11:44:23;;;;;;;4.70;1.77;;;25.40;69.10;;;;;;5077621;28;20111;-82
2023/06/15 11:47:00;;;;;;;1.70;1.60;;;25.40;69.40;;;;;;5069967;28;20055;-82
2023/06/15 11:49:32;;;;;;;6.28;2.95;;;25.60;68.50;;;;;;5080515;28;20047;-82
2023/06/15 11:51:58;;;;;;;2.72;2.03;;;25.60;68.80;;;;;;5070185;28;20028;-82
2023/06/15 11:54:28;;;;;;;1.73;1.30;;;25.80;68.80;;;;;;5079856;28;20040;-82
2023/06/15 11:56:58;;;;;;;4.28;1.58;;;26.00;68.70;;;;;;5080825;28;20040;-81
2023/06/15 11:59:27;;;;;;;4.00;1.88;;;26.10;67.70;;;;;;5093480;28;20480;-81
2023/06/15 12:01:59;;;;;;;3.28;1.73;;;26.10;65.60;;;;;;5076218;28;20072;-83
2023/06/15 12:04:30;;;;;;;2.75;1.60;;;26.20;66.70;;;;;;5080612;28;20115;-82
2023/06/15 12:06:56;;;;;;;7.15;1.80;;;26.30;67.20;;;;;;5052409;28;20392;-82
2023/06/15 12:09:22;;;;;;;2.30;1.67;;;26.50;67.50;;;;;;5078699;28;20554;-82
2023/06/15 12:11:48;;;;;;;3.28;1.80;;;26.70;67.10;;;;;;5072775;28;20045;-82
2023/06/15 12:14:20;;;;;;;5.22;1.80;;;26.80;67.00;;;;;;5089180;28;20043;-81
2023/06/15 12:16:52;;;;;;;1.95;1.63;;;26.90;66.20;;;;;;5087775;28;20586;-80
2023/06/15 12:19:20;;;;;;;2.58;1.98;;;27.00;66.40;;;;;;5090138;28;20123;-81
2023/06/15 12:21:47;;;;;;;1.98;1.50;;;27.10;65.40;;;;;;5075800;28;20066;-81
2023/06/15 12:24:16;;;;;;;2.92;2.10;;;27.20;65.10;;;;;;5059675;28;20039;-83
2023/06/15 12:26:53;;;;;;;6.70;1.90;;;27.30;65.00;;;;;;5073068;28;20044;-83
2023/06/15 12:29:22;;;;;;;6.45;2.92;;;27.20;64.10;;;;;;5072052;28;20044;-81
2023/06/15 12:31:53;;;;;;;2.60;2.40;;;27.20;64.50;;;;;;5084591;28;20086;-82
2023/06/15 12:34:22;;;;;;;2.38;1.98;;;27.30;64.10;;;;;;5085175;28;20127;-81
2023/06/15 12:36:49;;;;;;;3.08;2.30;;;27.50;65.10;;;;;;5082319;28;20097;-83
2023/06/15 12:39:15;;;;;;;3.75;1.95;;;27.50;65.80;;;;;;5080680;28;20081;-82
2023/06/15 12:41:41;;;;;;;3.72;1.90;;;27.60;65.20;;;;;;5081283;28;20076;-82
2023/06/15 12:44:08;;;;;;;4.20;2.13;;;27.70;65.40;;;;;;5084597;28;20101;-82
2023/06/15 12:46:38;;;;;;;1.88;1.65;;;27.80;65.20;;;;;;5074308;28;20096;-82
2023/06/15 12:49:04;;;;;;;3.50;1.83;;;27.90;64.80;;;;;;5061227;28;20055;-79